Time;durP1;ratioP1;P1;durP2;ratioP2;P2;SDS_P1;SDS_P2;PMS_P1;PMS_P2;Temp;Humidity;BMP_temperature;BMP_pressure;BME280_temperature;BME280_humidity;BME280_pressure;Samples;Min_cycle;Max_cycle;Signal;HPM_P1;HPM_P2
2022/02/02 00:00:52;;;;;;;0.82;0.55;;;;;;;;;;5072027;28;20465;-71
2022/02/02 00:03:20;;;;;;;0.60;0.40;;;;;;;;;;5071446;28;20029;-71
2022/02/02 00:08:23;;;;;;;2.38;0.68;;;;;;;;;;5071277;28;20085;-69
2022/02/02 00:16:23;;;;;;;1.95;0.40;;;;;;;;;;5070976;28;20116;-68
2022/02/02 00:19:00;;;;;;;0.80;0.43;;;;;;;;;;5072010;28;20024;-69
2022/02/02 00:24:01;;;;;;;0.55;0.40;;;;;;;;;;5072066;28;20385;-70
2022/02/02 00:26:36;;;;;;;1.10;0.60;;;;;;;;;;5071220;28;20088;-69
2022/02/02 00:29:09;;;;;;;1.23;0.60;;;;;;;;;;5071845;28;20083;-70
2022/02/02 00:31:41;;;;;;;0.95;0.50;;;;;;;;;;5071882;28;20078;-70
2022/02/02 00:34:12;;;;;;;1.60;0.65;;;;;;;;;;5071450;28;20028;-62
2022/02/02 00:36:58;;;;;;;1.33;0.95;;;;;;;;;;5071793;28;20024;-70
2022/02/02 00:39:25;;;;;;;0.68;0.40;;;;;;;;;;5071229;28;20031;-70
2022/02/02 00:41:53;;;;;;;1.48;0.47;;;;;;;;;;5053039;28;20013;-69
2022/02/02 00:44:20;;;;;;;1.48;0.50;;;;;;;;;;5071042;28;20028;-69
2022/02/02 00:46:46;;;;;;;1.17;0.52;;;;;;;;;;5071437;28;20024;-69
2022/02/02 00:49:13;;;;;;;0.90;0.43;;;;;;;;;;5071158;28;20458;-68
2022/02/02 00:54:06;;;;;;;1.45;0.40;;;;;;;;;;5071526;28;20024;-62
2022/02/02 00:56:32;;;;;;;0.43;0.43;;;;;;;;;;5071668;28;20024;-69
2022/02/02 00:58:58;;;;;;;1.23;0.45;;;;;;;;;;5071705;28;20029;-69
2022/02/02 01:01:24;;;;;;;0.80;0.40;;;;;;;;;;5071081;28;20124;-69
2022/02/02 01:03:50;;;;;;;1.00;0.70;;;;;;;;;;5071400;28;20107;-69
2022/02/02 01:06:19;;;;;;;1.70;0.60;;;;;;;;;;5071118;28;20429;-70
2022/02/02 01:29:57;;;;;;;0.82;0.50;;;;;;;;;;5075308;28;20027;-69
2022/02/02 01:32:23;;;;;;;1.20;0.50;;;;;;;;;;5073937;28;20086;-69
2022/02/02 01:34:49;;;;;;;0.70;0.40;;;;;;;;;;5075040;28;20453;-68
2022/02/02 01:37:17;;;;;;;0.75;0.50;;;;;;;;;;5073604;28;20049;-68
2022/02/02 01:39:44;;;;;;;0.93;0.50;;;;;;;;;;5074921;28;20039;-69
2022/02/02 01:42:14;;;;;;;1.42;0.55;;;;;;;;;;5074078;28;20469;-61
2022/02/02 01:44:49;;;;;;;0.85;0.60;;;;;;;;;;5074825;28;20027;-69
2022/02/02 01:47:15;;;;;;;1.40;0.60;;;;;;;;;;5073538;28;20039;-70
2022/02/02 01:55:02;;;;;;;0.93;0.73;;;;;;;;;;5074699;28;20028;-69
2022/02/02 02:00:07;;;;;;;0.40;0.40;;;;;;;;;;5074706;28;20074;-70
2022/02/02 02:02:35;;;;;;;1.35;0.68;;;;;;;;;;5073351;28;20036;-69
2022/02/02 02:05:01;;;;;;;0.85;0.40;;;;;;;;;;5055976;28;20032;-71
2022/02/02 02:07:27;;;;;;;1.70;0.50;;;;;;;;;;5073416;28;20069;-70
2022/02/02 02:09:54;;;;;;;1.55;0.40;;;;;;;;;;5074548;28;20020;-71
2022/02/02 02:12:20;;;;;;;0.98;0.50;;;;;;;;;;5073500;28;20040;-70
2022/02/02 02:17:13;;;;;;;1.42;0.40;;;;;;;;;;5073165;28;20060;-69
2022/02/02 02:19:43;;;;;;;1.10;0.60;;;;;;;;;;5074222;28;20473;-70
2022/02/02 02:22:11;;;;;;;1.27;0.52;;;;;;;;;;5073382;28;20032;-63
2022/02/02 02:24:39;;;;;;;0.90;0.40;;;;;;;;;;5073855;28;20033;-70
2022/02/02 02:27:06;;;;;;;0.43;0.35;;;;;;;;;;5073810;28;20477;-69
2022/02/02 02:32:57;;;;;;;1.27;0.50;;;;;;;;;;5073268;28;20150;-70
2022/02/02 02:35:40;;;;;;;1.75;0.50;;;;;;;;;;5072909;28;20108;-69
2022/02/02 02:57:15;;;;;;;1.15;0.70;;;;;;;;;;5072743;28;20077;-62
2022/02/02 03:00:20;;;;;;;1.30;0.40;;;;;;;;;;5063706;28;20032;-69
2022/02/02 03:30:01;;;;;;;1.05;0.40;;;;;;;;;;5061438;28;20028;-69
2022/02/02 03:35:12;;;;;;;1.23;0.50;;;;;;;;;;5060533;28;20378;-69
2022/02/02 03:51:26;;;;;;;1.65;0.80;;;;;;;;;;5061861;28;20131;-69
2022/02/02 03:54:14;;;;;;;1.50;0.68;;;;;;;;;;5046980;28;20056;-71
2022/02/02 03:57:07;;;;;;;2.35;0.60;;;;;;;;;;5061445;28;20024;-71
2022/02/02 03:59:38;;;;;;;0.70;0.50;;;;;;;;;;5070409;28;20040;-70
2022/02/02 04:07:09;;;;;;;2.25;0.68;;;;;;;;;;5072114;28;20378;-70
2022/02/02 04:09:38;;;;;;;2.20;1.00;;;;;;;;;;5071587;28;20458;-71
2022/02/02 04:54:55;;;;;;;2.22;0.70;;;;;;;;;;5078220;28;20457;-69
2022/02/02 05:07:22;;;;;;;1.75;0.55;;;;;;;;;;5078250;28;20063;-70
2022/02/02 05:10:39;;;;;;;2.72;0.77;;;;;;;;;;5078277;28;20019;-70
2022/02/02 05:50:57;;;;;;;2.17;0.90;;;;;;;;;;5076885;28;20040;-67
2022/02/02 05:53:24;;;;;;;1.58;0.63;;;;;;;;;;5077052;28;20069;-67
2022/02/02 05:55:50;;;;;;;2.17;0.88;;;;;;;;;;5076373;28;20036;-67
2022/02/02 05:58:16;;;;;;;2.58;0.80;;;;;;;;;;5073961;28;20358;-59
2022/02/02 06:00:42;;;;;;;1.88;0.93;;;;;;;;;;5074456;28;20032;-68
2022/02/02 06:03:13;;;;;;;2.47;0.80;;;;;;;;;;5074269;28;20033;-67
2022/02/02 06:05:39;;;;;;;2.03;0.75;;;;;;;;;;5073732;28;20028;-72
2022/02/02 06:08:10;;;;;;;1.90;0.93;;;;;;;;;;5074181;28;20103;-72
2022/02/02 06:10:36;;;;;;;2.97;0.80;;;;;;;;;;5073378;28;20100;-73
2022/02/02 06:13:02;;;;;;;3.00;0.88;;;;;;;;;;5074109;28;20059;-72
2022/02/02 06:15:28;;;;;;;1.42;0.60;;;;;;;;;;5073482;28;20124;-73
2022/02/02 06:17:55;;;;;;;2.08;0.70;;;;;;;;;;5074110;28;20107;-72
2022/02/02 06:20:21;;;;;;;1.85;0.65;;;;;;;;;;5072847;28;20440;-72
2022/02/02 06:22:52;;;;;;;1.42;0.60;;;;;;;;;;5074440;28;20536;-72
2022/02/02 06:25:22;;;;;;;2.45;1.23;;;;;;;;;;5073281;28;20386;-62
2022/02/02 06:27:56;;;;;;;3.28;0.80;;;;;;;;;;5074212;28;20483;-75
2022/02/02 06:30:23;;;;;;;1.40;0.80;;;;;;;;;;5073136;28;20107;-76
2022/02/02 06:32:52;;;;;;;3.30;0.77;;;;;;;;;;5073892;28;20032;-74
2022/02/02 06:35:19;;;;;;;3.05;1.20;;;;;;;;;;5055113;28;20029;-62
2022/02/02 06:37:46;;;;;;;1.90;0.73;;;;;;;;;;5073479;28;20079;-70
2022/02/02 06:40:13;;;;;;;2.60;0.80;;;;;;;;;;5073002;28;20084;-67
2022/02/02 06:42:40;;;;;;;1.65;0.80;;;;;;;;;;5072879;28;20044;-68
2022/02/02 06:45:09;;;;;;;5.45;0.75;;;;;;;;;;5060735;28;20029;-63
2022/02/02 06:47:37;;;;;;;1.83;0.93;;;;;;;;;;5054138;28;20166;-59
2022/02/02 06:50:21;;;;;;;3.22;0.90;;;;;;;;;;5064862;28;20510;-59
2022/02/02 06:52:57;;;;;;;5.65;1.08;;;;;;;;;;5073014;28;20093;-61
2022/02/02 06:55:47;;;;;;;8.63;1.05;;;;;;;;;;5072736;28;20040;-62
2022/02/02 06:58:40;;;;;;;5.18;1.38;;;;;;;;;;5072763;28;20041;-59
2022/02/02 07:01:26;;;;;;;3.20;0.95;;;;;;;;;;5073027;28;20135;-62
2022/02/02 07:09:28;;;;;;;4.32;1.20;;;;;;;;;;5071684;28;20398;-61
2022/02/02 07:12:07;;;;;;;3.50;1.15;;;;;;;;;;5073043;28;20025;-60
2022/02/02 07:17:39;;;;;;;4.07;1.30;;;;;;;;;;5071297;28;20055;-59
2022/02/02 07:30:54;;;;;;;3.05;0.80;;;;;;;;;;5060358;28;20040;-60
2022/02/02 07:33:26;;;;;;;3.35;1.05;;;;;;;;;;5062069;28;20040;-60
2022/02/02 07:36:08;;;;;;;2.70;1.15;;;;;;;;;;5062514;28;20389;-60
2022/02/02 07:38:54;;;;;;;3.50;0.98;;;;;;;;;;5065734;28;20056;-60
2022/02/02 07:41:25;;;;;;;5.18;1.15;;;;;;;;;;5058846;28;20029;-66
2022/02/02 07:43:53;;;;;;;9.03;1.43;;;;;;;;;;5064920;28;20029;-66
2022/02/02 07:46:25;;;;;;;1.85;1.13;;;;;;;;;;5063578;28;20379;-70
2022/02/02 07:48:51;;;;;;;2.33;0.93;;;;;;;;;;5061785;28;20115;-65
2022/02/02 07:51:18;;;;;;;3.80;1.00;;;;;;;;;;5059538;28;20086;-69
2022/02/02 07:53:49;;;;;;;4.93;1.20;;;;;;;;;;5060174;28;20025;-64
2022/02/02 07:56:17;;;;;;;3.45;1.27;;;;;;;;;;5060122;28;20373;-70
2022/02/02 07:58:48;;;;;;;4.03;0.90;;;;;;;;;;5063249;28;20021;-66
2022/02/02 08:01:16;;;;;;;2.83;1.40;;;;;;;;;;5060507;28;20025;-69
2022/02/02 08:03:51;;;;;;;3.78;1.10;;;;;;;;;;5064545;28;20033;-65
2022/02/02 08:06:21;;;;;;;2.25;1.05;;;;;;;;;;5062391;28;20021;-63
2022/02/02 08:08:50;;;;;;;6.93;2.15;;;;;;;;;;5062465;28;20021;-65
2022/02/02 08:11:25;;;;;;;3.90;1.00;;;;;;;;;;5062354;28;20024;-67
2022/02/02 08:13:56;;;;;;;2.78;1.05;;;;;;;;;;5063389;28;20056;-64
2022/02/02 08:16:23;;;;;;;2.65;1.00;;;;;;;;;;5061534;28;20377;-64
2022/02/02 08:18:51;;;;;;;3.17;1.05;;;;;;;;;;5062539;28;20029;-64
2022/02/02 08:21:17;;;;;;;2.42;1.20;;;;;;;;;;5041394;28;20024;-69
2022/02/02 08:23:44;;;;;;;2.15;1.02;;;;;;;;;;5060903;28;20024;-65
2022/02/02 08:26:15;;;;;;;3.45;1.20;;;;;;;;;;5062281;28;20158;-64
2022/02/02 08:28:45;;;;;;;4.78;1.65;;;;;;;;;;5061279;28;20104;-64
2022/02/02 08:31:12;;;;;;;6.63;1.77;;;;;;;;;;5060561;28;20108;-64
2022/02/02 08:33:40;;;;;;;6.13;1.13;;;;;;;;;;5062307;28;20031;-66
2022/02/02 08:36:13;;;;;;;2.75;1.05;;;;;;;;;;5042141;28;20465;-64
2022/02/02 08:41:14;;;;;;;2.22;0.82;;;;;;;;;;5061649;28;20040;-65
2022/02/02 08:43:51;;;;;;;2.50;1.05;;;;;;;;;;5057708;28;20034;-64
2022/02/02 08:46:29;;;;;;;3.33;0.75;;;;;;;;;;5045912;28;20467;-70
2022/02/02 08:48:57;;;;;;;2.47;1.10;;;;;;;;;;5065023;28;20029;-64
2022/02/02 08:51:27;;;;;;;4.07;0.98;;;;;;;;;;5060178;28;20025;-64
2022/02/02 08:57:04;;;;;;;4.75;1.40;;;;;;;;;;5062231;28;20062;-62
2022/02/02 08:59:26;;;;;;;2.67;0.85;;;;;;;;;;5060807;28;20438;-63
2022/02/02 09:01:54;;;;;;;8.93;1.98;;;;;;;;;;5065489;28;20133;-66
2022/02/02 09:07:05;;;;;;;5.50;1.27;;;;;;;;;;5059383;28;20024;-66
2022/02/02 09:09:57;;;;;;;3.55;1.20;;;;;;;;;;5061103;28;20021;-65
2022/02/02 09:23:29;;;;;;;2.40;0.98;;;;;;;;;;5064103;28;20489;-67
2022/02/02 09:31:29;;;;;;;3.70;1.10;;;;;;;;;;5061442;28;20040;-66
2022/02/02 09:34:03;;;;;;;;;;;;;;;;;;5064811;28;20025;-67
2022/02/02 09:36:32;;;;;;;2.95;1.00;;;;;;;;;;5046646;28;19915;-66
2022/02/02 09:39:00;;;;;;;2.75;0.90;;;;;;;;;;5062701;28;20442;-67
2022/02/02 09:43:57;;;;;;;3.67;1.00;;;;;;;;;;5062959;28;20106;-64
2022/02/02 09:46:29;;;;;;;3.28;1.08;;;;;;;;;;5063914;28;20024;-64
2022/02/02 09:48:59;;;;;;;4.88;1.40;;;;;;;;;;5067989;28;20029;-67
2022/02/02 09:51:38;;;;;;;2.63;0.95;;;;;;;;;;5060831;28;20047;-66
2022/02/02 10:01:58;;;;;;;2.47;1.35;;;;;;;;;;5063360;28;20773;-66
2022/02/02 10:15:24;;;;;;;2.90;0.90;;;;;;;;;;5063142;28;20035;-63
2022/02/02 10:17:57;;;;;;;2.95;1.10;;;;;;;;;;5066491;28;20872;-64
2022/02/02 10:20:24;;;;;;;1.85;1.23;;;;;;;;;;5059467;28;20028;-67
2022/02/02 10:22:51;;;;;;;3.17;1.27;;;;;;;;;;5069249;28;20118;-66
2022/02/02 10:25:31;;;;;;;3.63;1.15;;;;;;;;;;5043469;28;20549;-61
2022/02/02 10:28:13;;;;;;;4.85;2.35;;;;;;;;;;5064003;28;20032;-67
2022/02/02 10:30:44;;;;;;;3.22;1.35;;;;;;;;;;5060842;28;20605;-66
2022/02/02 10:33:13;;;;;;;3.38;1.05;;;;;;;;;;5063473;28;20029;-66
2022/02/02 10:35:41;;;;;;;2.40;1.05;;;;;;;;;;5043060;28;20562;-66
2022/02/02 10:38:14;;;;;;;2.58;1.10;;;;;;;;;;5061822;28;20063;-67
2022/02/02 10:40:48;;;;;;;3.30;1.20;;;;;;;;;;5061151;28;20024;-66
2022/02/02 10:43:20;;;;;;;3.63;1.27;;;;;;;;;;5066352;28;20157;-67
2022/02/02 10:45:46;;;;;;;1.85;0.98;;;;;;;;;;5068822;28;20078;-66
2022/02/02 10:48:23;;;;;;;1.98;0.95;;;;;;;;;;5068871;28;20162;-66
2022/02/02 10:51:00;;;;;;;3.40;1.00;;;;;;;;;;5064295;28;20111;-66
2022/02/02 10:53:49;;;;;;;2.15;1.02;;;;;;;;;;5063819;28;20592;-67
2022/02/02 10:56:35;;;;;;;2.60;1.40;;;;;;;;;;5065855;28;20477;-66
2022/02/02 11:01:41;;;;;;;2.78;1.30;;;;;;;;;;5067037;28;20522;-67
2022/02/02 11:06:53;;;;;;;4.00;1.50;;;;;;;;;;5065821;28;20519;-65
2022/02/02 11:09:20;;;;;;;3.35;1.52;;;;;;;;;;5061244;28;20051;-61
2022/02/02 11:11:56;;;;;;;2.88;1.25;;;;;;;;;;5062025;28;20504;-66
2022/02/02 11:14:28;;;;;;;4.13;1.02;;;;;;;;;;5065103;28;20032;-65
2022/02/02 11:16:58;;;;;;;3.17;1.30;;;;;;;;;;5060784;28;20031;-67
2022/02/02 11:19:28;;;;;;;2.90;1.00;;;;;;;;;;5060349;28;20520;-67
2022/02/02 11:21:54;;;;;;;2.75;0.95;;;;;;;;;;5062700;28;20024;-66
2022/02/02 11:24:21;;;;;;;3.03;1.15;;;;;;;;;;5062311;28;20033;-61
2022/02/02 11:26:48;;;;;;;3.47;1.10;;;;;;;;;;5062448;28;20017;-67
2022/02/02 11:29:32;;;;;;;3.80;1.27;;;;;;;;;;5062159;28;20025;-67
2022/02/02 11:32:02;;;;;;;4.38;1.60;;;;;;;;;;5062054;28;20017;-67
2022/02/02 11:34:29;;;;;;;6.47;2.15;;;;;;;;;;5061617;28;20099;-67
2022/02/02 11:36:56;;;;;;;3.55;1.58;;;;;;;;;;5065990;28;20057;-67
2022/02/02 11:39:39;;;;;;;2.72;1.00;;;;;;;;;;5061710;28;20012;-63
2022/02/02 11:42:17;;;;;;;4.03;1.00;;;;;;;;;;5060318;28;20028;-67
2022/02/02 11:44:55;;;;;;;3.30;1.25;;;;;;;;;;5060134;28;20018;-67
2022/02/02 11:47:57;;;;;;;3.50;1.48;;;;;;;;;;5059342;28;20029;-62
2022/02/02 11:50:53;;;;;;;3.72;1.10;;;;;;;;;;4999153;28;20057;-67
2022/02/02 11:53:38;;;;;;;4.22;1.35;;;;;;;;;;5056950;28;20039;-62
2022/02/02 11:56:05;;;;;;;3.20;1.10;;;;;;;;;;5070927;28;20052;-67
2022/02/02 11:58:32;;;;;;;3.78;1.45;;;;;;;;;;5071166;28;20048;-67
2022/02/02 12:01:19;;;;;;;3.65;1.25;;;;;;;;;;5070736;28;20029;-67
2022/02/02 12:04:17;;;;;;;3.03;1.08;;;;;;;;;;5070054;28;20044;-61
2022/02/02 12:09:29;;;;;;;5.10;1.60;;;;;;;;;;5053481;28;20040;-61
2022/02/02 12:55:56;;;;;;;5.50;1.13;;;;;;;;;;5060183;28;20044;-60
2022/02/02 12:57:57;;;;;;;3.35;1.40;;;;;;;;;;5060286;28;20028;-62
2022/02/02 13:00:35;;;;;;;3.20;0.95;;;;;;;;;;5064226;28;20060;-60
2022/02/02 13:03:01;;;;;;;6.18;2.00;;;;;;;;;;5060863;28;20440;-62
2022/02/02 13:05:28;;;;;;;3.92;1.10;;;;;;;;;;5061526;28;20025;-62
2022/02/02 13:07:55;;;;;;;4.97;1.13;;;;;;;;;;5064810;28;20047;-63
2022/02/02 13:10:22;;;;;;;4.40;1.20;;;;;;;;;;5064516;28;20013;-61
2022/02/02 13:17:56;;;;;;;2.17;1.15;;;;;;;;;;5062562;28;20125;-63
2022/02/02 13:20:48;;;;;;;4.75;1.98;;;;;;;;;;5063357;28;20021;-61
2022/02/02 13:26:00;;;;;;;3.22;1.40;;;;;;;;;;5064602;28;20025;-63
2022/02/02 13:28:37;;;;;;;3.80;1.20;;;;;;;;;;5063311;28;20019;-63
2022/02/02 13:31:03;;;;;;;2.33;1.20;;;;;;;;;;5065950;28;20103;-63
2022/02/02 13:33:35;;;;;;;4.78;1.23;;;;;;;;;;5066232;28;20047;-63
2022/02/02 13:44:40;;;;;;;3.15;1.10;;;;;;;;;;5063992;28;20064;-63
2022/02/02 13:52:35;;;;;;;5.20;1.55;;;;;;;;;;5062861;28;20029;-63
2022/02/02 13:55:28;;;;;;;2.75;1.40;;;;;;;;;;5066949;28;20461;-63
2022/02/02 14:01:00;;;;;;;2.10;0.98;;;;;;;;;;5062946;28;20047;-62
2022/02/02 14:33:06;;;;;;;1.88;0.93;;;;;;;;;;5066999;28;20496;-62
2022/02/02 14:35:33;;;;;;;2.53;1.15;;;;;;;;;;5060281;28;20045;-63
2022/02/02 14:38:00;;;;;;;2.08;0.82;;;;;;;;;;5066874;28;20059;-63
2022/02/02 14:40:55;;;;;;;3.13;1.10;;;;;;;;;;5064525;28;20355;-63
2022/02/02 14:43:35;;;;;;;2.17;0.90;;;;;;;;;;5065067;28;20412;-61
2022/02/02 14:46:03;;;;;;;2.72;1.10;;;;;;;;;;5062354;28;20017;-63
2022/02/02 14:48:34;;;;;;;3.30;1.65;;;;;;;;;;5060954;28;20025;-63
2022/02/02 14:51:30;;;;;;;2.03;0.88;;;;;;;;;;5063341;28;20378;-63
2022/02/02 14:54:09;;;;;;;1.38;0.88;;;;;;;;;;5063812;28;20032;-60
2022/02/02 15:05:20;;;;;;;2.15;0.95;;;;;;;;;;5066677;28;20020;-61
2022/02/02 15:31:53;;;;;;;2.70;1.00;;;;;;;;;;5071851;28;20043;-62
2022/02/02 15:34:32;;;;;;;3.75;1.05;;;;;;;;;;5072228;28;20031;-61
2022/02/02 15:39:48;;;;;;;1.35;0.90;;;;;;;;;;5056596;28;20622;-61
2022/02/02 15:42:25;;;;;;;3.63;0.93;;;;;;;;;;5071973;28;20028;-62
2022/02/02 15:58:19;;;;;;;2.92;0.98;;;;;;;;;;5078565;28;20115;-62
2022/02/02 16:03:14;;;;;;;4.90;1.83;;;;;;;;;;5071037;28;20051;-62
2022/02/02 16:05:46;;;;;;;2.53;0.77;;;;;;;;;;5071033;28;20035;-62
2022/02/02 16:08:14;;;;;;;4.35;1.27;;;;;;;;;;5071803;28;20032;-61
2022/02/02 16:10:59;;;;;;;3.00;1.00;;;;;;;;;;5070759;28;20021;-61
2022/02/02 16:13:39;;;;;;;2.70;0.95;;;;;;;;;;5071045;28;20602;-60
2022/02/02 16:16:24;;;;;;;2.35;0.80;;;;;;;;;;5069774;28;20133;-61
2022/02/02 16:31:33;;;;;;;3.03;1.20;;;;;;;;;;5056228;28;20062;-61
2022/02/02 16:36:13;;;;;;;5.65;1.98;;;;;;;;;;5071915;28;20382;-63
2022/02/02 16:38:49;;;;;;;24.80;7.63;;;;;;;;;;5071410;28;20048;-58
2022/02/02 16:44:02;;;;;;;91.22;42.40;;;;;;;;;;5043877;28;20049;-59
2022/02/02 16:46:28;;;;;;;95.03;47.10;;;;;;;;;;5064554;28;20021;-58
2022/02/02 16:48:54;;;;;;;95.43;46.58;;;;;;;;;;5060830;28;20037;-59
2022/02/02 16:51:20;;;;;;;112.95;46.90;;;;;;;;;;5064635;28;20025;-47
2022/02/02 16:53:49;;;;;;;107.30;55.03;;;;;;;;;;5061559;28;20055;-68
2022/02/02 16:56:56;;;;;;;119.60;70.47;;;;;;;;;;5060441;28;20096;-47
2022/02/02 17:32:06;;;;;;;64.88;36.90;;;;;;;;;;5070497;28;20090;-55
2022/02/02 17:34:56;;;;;;;59.92;36.95;;;;;;;;;;5052823;28;20099;-54
2022/02/02 17:40:13;;;;;;;47.33;30.55;;;;;;;;;;5070578;28;20550;-50
2022/02/02 17:45:26;;;;;;;43.58;28.52;;;;;;;;;;5070773;28;20347;-53
2022/02/02 18:20:07;;;;;;;27.73;17.58;;;;;;;;;;5072879;28;20442;-61
2022/02/02 18:22:39;;;;;;;25.27;16.27;;;;;;;;;;5073828;28;20107;-60
2022/02/02 18:25:13;;;;;;;26.83;15.90;;;;;;;;;;5074034;28;20016;-61
2022/02/02 18:27:50;;;;;;;25.58;16.13;;;;;;;;;;5072161;28;20035;-63
2022/02/02 18:30:47;;;;;;;24.38;15.32;;;;;;;;;;5063083;28;20024;-60
2022/02/02 18:35:43;;;;;;;23.85;14.63;;;;;;;;;;5073155;28;20035;-60
2022/02/02 18:42:17;;;;;;;23.13;12.65;;;;;;;;;;5073054;28;20099;-60
2022/02/02 19:02:11;;;;;;;17.33;10.30;;;;;;;;;;5072518;28;20855;-62
2022/02/02 20:11:35;;;;;;;8.40;5.05;;;;;;;;;;5071401;28;20024;-50
2022/02/02 20:14:01;;;;;;;10.40;5.45;;;;;;;;;;5071112;28;20477;-52
2022/02/02 20:16:27;;;;;;;9.98;4.97;;;;;;;;;;5061155;28;20035;-49
2022/02/02 20:18:57;;;;;;;8.02;4.80;;;;;;;;;;5069557;28;20032;-50
2022/02/02 20:21:26;;;;;;;8.38;4.88;;;;;;;;;;5071136;28;20031;-50
2022/02/02 20:23:52;;;;;;;8.40;5.10;;;;;;;;;;5070495;28;20047;-49
2022/02/02 20:26:22;;;;;;;8.25;4.75;;;;;;;;;;5071256;28;20032;-50
2022/02/02 20:28:48;;;;;;;8.10;4.97;;;;;;;;;;5070646;28;20461;-50
2022/02/02 20:31:15;;;;;;;10.52;5.30;;;;;;;;;;5071334;28;20024;-50
2022/02/02 20:33:41;;;;;;;6.43;4.18;;;;;;;;;;5070354;28;20036;-51
2022/02/02 20:36:09;;;;;;;7.70;4.93;;;;;;;;;;5071288;28;20035;-49
2022/02/02 20:38:35;;;;;;;7.35;4.32;;;;;;;;;;5070847;28;20170;-53
2022/02/02 20:41:02;;;;;;;7.32;5.20;;;;;;;;;;5069197;28;20032;-50
2022/02/02 20:43:37;;;;;;;7.47;4.38;;;;;;;;;;5070630;28;20374;-51
2022/02/02 21:14:41;;;;;;;6.32;3.97;;;;;;;;;;5070165;28;20436;-51
2022/02/02 21:17:16;;;;;;;5.15;3.42;;;;;;;;;;5070555;28;20111;-50
2022/02/02 21:20:33;;;;;;;5.60;3.20;;;;;;;;;;5069706;28;20078;-49
2022/02/02 21:22:33;;;;;;;7.43;3.80;;;;;;;;;;5059024;28;20083;-50
2022/02/02 21:25:13;;;;;;;9.52;4.32;;;;;;;;;;5052286;28;20020;-49
2022/02/02 21:27:40;;;;;;;5.18;3.70;;;;;;;;;;5078882;28;20077;-50
2022/02/02 21:30:07;;;;;;;6.25;3.47;;;;;;;;;;5074118;28;20021;-49
2022/02/02 21:32:33;;;;;;;5.05;3.40;;;;;;;;;;5074357;28;20039;-50
2022/02/02 21:35:05;;;;;;;4.57;3.47;;;;;;;;;;5075251;28;20062;-51
2022/02/02 21:37:33;;;;;;;5.28;3.72;;;;;;;;;;5075581;28;20049;-50
2022/02/02 21:40:18;;;;;;;5.75;3.10;;;;;;;;;;5073944;28;20032;-50
2022/02/02 21:42:44;;;;;;;4.78;2.55;;;;;;;;;;5074172;28;20048;-55
2022/02/02 21:45:10;;;;;;;4.20;2.95;;;;;;;;;;5074354;28;20032;-54
2022/02/02 21:47:36;;;;;;;4.25;3.15;;;;;;;;;;5074868;28;20032;-51
2022/02/02 21:50:08;;;;;;;5.22;3.15;;;;;;;;;;5074094;28;20165;-51
2022/02/02 21:52:34;;;;;;;4.75;3.28;;;;;;;;;;5074910;28;20040;-51
2022/02/02 21:55:02;;;;;;;5.18;2.97;;;;;;;;;;5073720;28;20028;-48
2022/02/02 21:57:28;;;;;;;4.57;3.15;;;;;;;;;;5073654;28;20507;-54
2022/02/02 21:59:54;;;;;;;5.35;3.25;;;;;;;;;;5073254;28;20091;-49
2022/02/02 22:02:20;;;;;;;6.78;3.83;;;;;;;;;;5074673;28;20091;-50
2022/02/02 22:04:46;;;;;;;4.70;2.92;;;;;;;;;;5073751;28;20058;-49
2022/02/02 22:07:12;;;;;;;4.20;2.60;;;;;;;;;;5074292;28;20571;-50
2022/02/02 22:09:38;;;;;;;4.47;2.70;;;;;;;;;;5073588;28;20035;-48
2022/02/02 22:12:04;;;;;;;4.47;3.28;;;;;;;;;;5073696;28;20028;-49
2022/02/02 22:14:32;;;;;;;3.65;2.63;;;;;;;;;;5073958;28;20500;-49
2022/02/02 22:17:01;;;;;;;5.40;3.05;;;;;;;;;;5073512;28;20024;-50
2022/02/02 22:19:28;;;;;;;5.28;2.90;;;;;;;;;;5073869;28;20097;-49
2022/02/02 22:21:54;;;;;;;4.18;2.55;;;;;;;;;;5073180;28;20108;-52
2022/02/02 22:24:20;;;;;;;5.15;2.85;;;;;;;;;;5074136;28;20029;-50
2022/02/02 22:26:46;;;;;;;4.05;2.63;;;;;;;;;;5072739;28;20020;-49
2022/02/02 22:29:12;;;;;;;3.65;2.67;;;;;;;;;;5073651;28;20028;-50
2022/02/02 22:31:38;;;;;;;3.72;2.50;;;;;;;;;;5073617;28;20024;-52
2022/02/02 22:34:04;;;;;;;3.50;2.22;;;;;;;;;;5073506;28;20030;-51
2022/02/02 22:36:30;;;;;;;2.67;2.08;;;;;;;;;;5073726;28;20055;-53
2022/02/02 22:38:56;;;;;;;3.83;2.28;;;;;;;;;;5072208;28;20017;-54
2022/02/02 22:41:22;;;;;;;2.92;1.90;;;;;;;;;;5073627;28;20070;-54
2022/02/02 22:43:51;;;;;;;2.72;2.10;;;;;;;;;;5072973;28;20032;-53
2022/02/02 22:46:20;;;;;;;3.35;2.35;;;;;;;;;;5073370;28;20020;-52
2022/02/02 22:48:46;;;;;;;2.47;1.90;;;;;;;;;;5072536;28;20062;-54
2022/02/02 22:51:13;;;;;;;3.22;1.98;;;;;;;;;;5073313;28;20033;-54
2022/02/02 22:53:39;;;;;;;2.83;2.20;;;;;;;;;;5073351;28;20055;-50
2022/02/02 22:56:05;;;;;;;3.50;2.38;;;;;;;;;;5073065;28;20112;-50
2022/02/02 22:58:31;;;;;;;3.13;2.05;;;;;;;;;;5073346;28;20024;-52
2022/02/02 23:00:57;;;;;;;4.07;2.70;;;;;;;;;;5072269;28;20810;-51
2022/02/02 23:03:24;;;;;;;3.05;2.25;;;;;;;;;;5072795;28;20387;-52
2022/02/02 23:05:55;;;;;;;4.03;2.45;;;;;;;;;;5072506;28;20031;-54
2022/02/02 23:08:24;;;;;;;2.80;1.92;;;;;;;;;;5073402;28;20024;-52
2022/02/02 23:10:50;;;;;;;2.67;2.03;;;;;;;;;;5072561;28;20024;-50
2022/02/02 23:13:16;;;;;;;2.00;1.70;;;;;;;;;;5073193;28;20029;-52
2022/02/02 23:16:02;;;;;;;3.08;2.10;;;;;;;;;;5072163;28;20028;-53
2022/02/02 23:18:32;;;;;;;2.50;1.60;;;;;;;;;;5072970;28;20021;-53
2022/02/02 23:21:01;;;;;;;4.22;2.55;;;;;;;;;;5072263;28;20056;-50
2022/02/02 23:23:29;;;;;;;3.20;2.00;;;;;;;;;;5072966;28;20427;-53
2022/02/02 23:25:56;;;;;;;3.15;1.90;;;;;;;;;;5071720;28;20089;-52
2022/02/02 23:28:25;;;;;;;3.63;2.85;;;;;;;;;;5071562;28;20038;-51
2022/02/02 23:30:52;;;;;;;3.05;1.83;;;;;;;;;;5071689;28;20039;-52
2022/02/02 23:33:18;;;;;;;2.60;1.73;;;;;;;;;;5072131;28;20473;-51
2022/02/02 23:35:45;;;;;;;5.05;2.08;;;;;;;;;;5054005;28;20032;-54
2022/02/02 23:38:12;;;;;;;3.42;2.40;;;;;;;;;;5072405;28;20044;-51
2022/02/02 23:41:26;;;;;;;2.15;1.55;;;;;;;;;;5072685;28;20032;-49
2022/02/02 23:43:27;;;;;;;2.95;1.88;;;;;;;;;;5072367;28;20037;-51
2022/02/02 23:45:58;;;;;;;2.65;1.63;;;;;;;;;;5071903;28;20031;-50
2022/02/02 23:48:25;;;;;;;;;;;;;;;;;;5072762;28;20092;-50
2022/02/02 23:50:54;;;;;;;3.00;2.13;;;;;;;;;;5070605;28;19955;-50
2022/02/02 23:53:24;;;;;;;2.40;1.70;;;;;;;;;;5072319;28;20035;-51
2022/02/02 23:55:57;;;;;;;2.63;1.80;;;;;;;;;;5071674;28;20025;-52
2022/02/02 23:58:35;;;;;;;2.28;1.70;;;;;;;;;;5072271;28;20021;-54
